Terminal Aerodrome Forecast
Issued by NWS Louisville, KY

Home | Current Version | Previous Version | Text Only | Print | Product List | Glossary On
Versions: 1 2 3 4 5 6 7 8 9 10 11 12 13 14 15
000
FTUS43 KLMK 201600 AAA
TAFSDF
TAF AMD
KSDF 201617Z 2016/2118 27012G17KT P6SM SCT035
     FM202300 29005KT P6SM SKC
     FM211000 VRB03KT P6SM SKC=

USA.gov is the U.S. government's official web portal to all federal, state and local government web resources and services.